createdAt,value
2023-04-15T00:00:47.699Z,100.00
2023-04-15T00:03:34.470Z,100.00
2023-04-15T00:06:22.226Z,100.00
2023-04-15T00:09:08.737Z,100.00
2023-04-15T00:11:55.064Z,100.00
2023-04-15T00:14:41.536Z,100.00
2023-04-15T00:17:28.064Z,100.00
2023-04-15T00:20:14.490Z,100.00
2023-04-15T00:23:01.668Z,100.00
2023-04-15T00:25:47.995Z,100.00
2023-04-15T00:28:34.417Z,100.00
2023-04-15T00:31:21.095Z,100.00
2023-04-15T00:34:07.940Z,100.00
2023-04-15T00:36:54.725Z,100.00
2023-04-15T00:39:40.961Z,100.00
2023-04-15T00:42:27.755Z,100.00
2023-04-15T00:45:14.214Z,100.00
2023-04-15T00:48:01.318Z,100.00
2023-04-15T00:50:47.709Z,100.00
2023-04-15T00:53:34.059Z,100.00
2023-04-15T00:56:24.390Z,100.00
2023-04-15T00:59:10.686Z,100.00
2023-04-15T01:01:57.243Z,100.00
2023-04-15T01:04:43.898Z,100.00
2023-04-15T01:07:31.920Z,100.00
2023-04-15T01:10:18.738Z,100.00
2023-04-15T01:13:05.378Z,100.00
2023-04-15T01:15:53.296Z,100.00
2023-04-15T01:18:40.250Z,100.00
2023-04-15T01:21:27.024Z,100.00
2023-04-15T01:24:17.813Z,100.00
2023-04-15T01:27:05.274Z,100.00
2023-04-15T01:29:51.932Z,100.00
2023-04-15T01:32:38.296Z,100.00
2023-04-15T01:35:24.925Z,100.00
2023-04-15T01:38:12.387Z,100.00
2023-04-15T01:40:59.254Z,100.00
2023-04-15T01:43:45.669Z,100.00
2023-04-15T01:46:32.324Z,100.00
2023-04-15T01:49:20.154Z,100.00
2023-04-15T01:52:06.942Z,100.00
2023-04-15T01:54:53.516Z,100.00
2023-04-15T01:57:40.404Z,100.00
2023-04-15T02:00:27.301Z,100.00
2023-04-15T02:03:13.791Z,100.00
2023-04-15T02:06:00.071Z,100.00
2023-04-15T02:08:48.040Z,100.00
2023-04-15T02:11:35.241Z,100.00
2023-04-15T02:14:23.491Z,100.00
2023-04-15T02:17:10.587Z,100.00
2023-04-15T02:19:57.027Z,100.00
2023-04-15T02:22:44.286Z,100.00
2023-04-15T02:25:30.598Z,100.00
2023-04-15T02:28:16.859Z,100.00
2023-04-15T02:31:09.581Z,100.00
2023-04-15T02:33:56.343Z,100.00
2023-04-15T02:36:42.915Z,100.00
2023-04-15T02:39:29.604Z,100.00
2023-04-15T02:42:16.265Z,100.00
2023-04-15T02:45:03.190Z,100.00
2023-04-15T02:47:53.274Z,100.00
2023-04-15T02:50:40.786Z,100.00
2023-04-15T02:53:29.255Z,100.00
2023-04-15T02:56:17.021Z,100.00
2023-04-15T02:59:04.716Z,100.00
2023-04-15T03:01:51.578Z,100.00
2023-04-15T03:04:37.907Z,100.00
2023-04-15T03:07:24.375Z,100.00
2023-04-15T03:10:11.111Z,100.00
2023-04-15T03:12:57.523Z,100.00
2023-04-15T03:15:46.621Z,100.00
2023-04-15T03:18:33.130Z,100.00
2023-04-15T03:21:23.814Z,100.00
2023-04-15T03:24:10.892Z,100.00
2023-04-15T03:26:57.868Z,100.00
2023-04-15T03:29:44.467Z,100.00
2023-04-15T03:32:31.638Z,100.00
2023-04-15T03:35:17.950Z,100.00
2023-04-15T03:38:04.256Z,100.00
2023-04-15T03:40:50.497Z,100.00
2023-04-15T03:43:36.807Z,100.00
2023-04-15T03:46:22.988Z,100.00
2023-04-15T03:49:09.438Z,100.00
2023-04-15T03:51:55.778Z,100.00
2023-04-15T03:54:42.335Z,100.00
2023-04-15T03:57:29.515Z,100.00
2023-04-15T04:00:16.095Z,100.00
2023-04-15T04:03:02.772Z,100.00
2023-04-15T04:05:49.104Z,100.00
2023-04-15T04:08:35.559Z,100.00
2023-04-15T04:11:22.065Z,100.00
2023-04-15T04:14:08.387Z,100.00
2023-04-15T04:16:55.712Z,100.00
2023-04-15T04:19:42.164Z,100.00
2023-04-15T04:22:28.308Z,100.00
2023-04-15T04:25:14.561Z,100.00
2023-04-15T04:28:00.709Z,100.00
2023-04-15T04:30:47.143Z,100.00
2023-04-15T04:33:33.806Z,100.00
2023-04-15T04:36:20.632Z,100.00
2023-04-15T04:39:07.105Z,100.00
2023-04-15T04:41:53.651Z,100.00
2023-04-15T04:44:40.092Z,100.00
2023-04-15T04:47:26.482Z,100.00
2023-04-15T04:50:12.812Z,100.00
2023-04-15T04:52:58.944Z,100.00
2023-04-15T04:55:45.624Z,100.00
2023-04-15T04:58:32.130Z,100.00
2023-04-15T05:01:18.528Z,100.00
2023-04-15T05:04:05.411Z,100.00
2023-04-15T05:06:52.169Z,100.00
2023-04-15T05:09:38.523Z,100.00
2023-04-15T05:12:24.838Z,100.00
2023-04-15T05:15:11.489Z,100.00
2023-04-15T05:17:57.894Z,100.00
2023-04-15T05:20:44.476Z,100.00
2023-04-15T05:23:30.768Z,100.00
2023-04-15T05:26:17.696Z,100.00
2023-04-15T05:29:04.349Z,100.00
2023-04-15T05:31:50.884Z,100.00
2023-04-15T05:34:37.228Z,100.00
2023-04-15T05:37:23.846Z,100.00
2023-04-15T05:40:10.607Z,100.00
2023-04-15T05:42:56.999Z,100.00
2023-04-15T05:45:43.233Z,100.00
2023-04-15T05:48:29.753Z,100.00
2023-04-15T05:51:16.123Z,100.00
2023-04-15T05:54:02.772Z,100.00
2023-04-15T05:56:49.137Z,100.00
2023-04-15T05:59:35.451Z,100.00
2023-04-15T06:02:22.141Z,100.00
2023-04-15T06:05:09.872Z,100.00
2023-04-15T06:07:56.489Z,100.00
2023-04-15T06:10:42.804Z,100.00
2023-04-15T06:13:29.287Z,100.00
2023-04-15T06:16:15.869Z,100.00
2023-04-15T06:19:03.047Z,100.00
2023-04-15T06:21:49.633Z,100.00
2023-04-15T06:24:37.012Z,100.00
2023-04-15T06:27:23.681Z,100.00
2023-04-15T06:30:10.311Z,100.00
2023-04-15T06:32:56.909Z,100.00
2023-04-15T06:35:43.061Z,100.00
2023-04-15T06:38:29.365Z,100.00
2023-04-15T06:41:15.912Z,100.00
2023-04-15T06:44:02.581Z,100.00
2023-04-15T06:46:49.152Z,100.00
2023-04-15T06:49:35.599Z,100.00
2023-04-15T06:52:22.298Z,100.00
2023-04-15T06:55:08.900Z,100.00
2023-04-15T06:57:55.381Z,100.00
2023-04-15T07:00:42.399Z,100.00
2023-04-15T07:03:30.812Z,100.00
2023-04-15T07:06:18.382Z,100.00
2023-04-15T07:09:05.551Z,100.00
2023-04-15T07:11:52.473Z,100.00
2023-04-15T07:14:38.720Z,100.00
2023-04-15T07:17:25.085Z,100.00
2023-04-15T07:20:12.755Z,100.00
2023-04-15T07:22:59.107Z,100.00
2023-04-15T07:25:45.322Z,100.00
2023-04-15T07:28:32.257Z,96.53
2023-04-15T07:31:19.057Z,96.96
2023-04-15T07:34:07.351Z,99.23
2023-04-15T07:36:53.662Z,97.65
2023-04-15T07:39:40.000Z,97.97
2023-04-15T07:42:27.052Z,96.60
2023-04-15T07:45:13.211Z,95.80
2023-04-15T07:47:59.766Z,93.34
2023-04-15T07:50:46.328Z,89.65
2023-04-15T07:53:33.232Z,84.24
2023-04-15T07:56:19.573Z,82.25
2023-04-15T07:59:06.472Z,76.28
2023-04-15T08:01:53.109Z,78.59
2023-04-15T08:04:39.529Z,76.54
2023-04-15T08:07:26.400Z,76.42
2023-04-15T08:10:12.830Z,74.88
2023-04-15T08:12:59.553Z,73.03
2023-04-15T08:15:46.161Z,75.20
2023-04-15T08:18:32.734Z,73.25
2023-04-15T08:21:19.944Z,70.48
2023-04-15T08:24:06.965Z,67.14
2023-04-15T08:26:53.522Z,68.37
2023-04-15T08:29:40.620Z,67.01
2023-04-15T08:32:27.288Z,68.20
2023-04-15T08:35:14.074Z,70.28
2023-04-15T08:38:00.401Z,67.11
2023-04-15T08:40:47.202Z,65.39
2023-04-15T08:43:47.015Z,67.25
2023-04-15T08:46:34.808Z,66.28
2023-04-15T08:49:22.572Z,64.11
2023-04-15T08:52:09.560Z,64.22
2023-04-15T08:54:58.914Z,65.11
2023-04-15T08:57:45.443Z,63.97
2023-04-15T09:00:33.989Z,63.50
2023-04-15T09:03:22.832Z,63.37
2023-04-15T09:06:09.617Z,60.02
2023-04-15T09:08:56.346Z,61.71
2023-04-15T09:11:42.871Z,61.01
2023-04-15T09:14:32.069Z,59.85
2023-04-15T09:17:21.109Z,59.98
2023-04-15T09:20:09.746Z,59.01
2023-04-15T09:22:56.318Z,60.22
2023-04-15T09:25:42.981Z,58.72
2023-04-15T09:28:30.182Z,58.35
2023-04-15T09:31:17.025Z,58.13
2023-04-15T09:34:03.703Z,56.42
2023-04-15T09:36:56.256Z,55.29
2023-04-15T09:39:51.044Z,54.61
2023-04-15T09:42:38.031Z,54.12
2023-04-15T09:45:25.716Z,52.55
2023-04-15T09:48:17.023Z,51.30
2023-04-15T09:51:03.471Z,49.08
2023-04-15T09:53:54.800Z,50.25
2023-04-15T09:56:43.772Z,43.51
2023-04-15T09:59:30.154Z,44.67
2023-04-15T10:02:20.847Z,41.00
2023-04-15T10:05:09.976Z,41.57
2023-04-15T10:07:57.525Z,43.19
2023-04-15T10:10:45.772Z,43.98
2023-04-15T10:13:37.223Z,43.17
2023-04-15T10:16:28.509Z,42.71
2023-04-15T10:19:18.953Z,42.64
2023-04-15T10:22:06.521Z,43.52
2023-04-15T10:24:53.712Z,44.61
2023-04-15T10:27:42.229Z,44.12
2023-04-15T10:30:28.948Z,44.76
2023-04-15T10:33:21.129Z,45.82
2023-04-15T10:36:07.836Z,46.10
2023-04-15T10:38:54.652Z,46.44
2023-04-15T10:41:41.392Z,47.87
2023-04-15T10:44:27.530Z,48.00
2023-04-15T10:47:19.498Z,49.15
2023-04-15T10:50:06.296Z,49.53
2023-04-15T10:52:52.825Z,50.07
2023-04-15T10:55:39.422Z,47.68
2023-04-15T10:58:26.034Z,46.03
2023-04-15T11:01:13.375Z,46.18
2023-04-15T11:03:59.993Z,47.07
2023-04-15T11:06:46.904Z,47.37
2023-04-15T11:09:34.250Z,47.26
2023-04-15T11:12:20.753Z,48.19
2023-04-15T11:15:34.473Z,50.32
2023-04-15T11:18:26.408Z,47.79
2023-04-15T11:21:12.780Z,47.10
2023-04-15T11:23:59.050Z,46.92
2023-04-15T11:26:45.558Z,49.25
2023-04-15T11:29:32.316Z,49.86
2023-04-15T11:32:18.931Z,46.79
2023-04-15T11:35:05.361Z,46.05
2023-04-15T11:37:53.255Z,47.34
2023-04-15T11:40:40.926Z,45.71
2023-04-15T11:43:27.478Z,44.81
2023-04-15T11:46:13.882Z,44.53
2023-04-15T11:49:00.813Z,44.02
2023-04-15T11:51:47.717Z,42.73
2023-04-15T11:54:34.224Z,42.59
2023-04-15T11:57:20.444Z,43.78
2023-04-15T12:00:08.092Z,43.81
2023-04-15T12:03:17.294Z,43.49
2023-04-15T12:06:07.166Z,42.35
2023-04-15T12:08:59.035Z,42.35
2023-04-15T12:11:57.464Z,45.66
2023-04-15T12:14:44.826Z,50.60
2023-04-15T12:17:31.625Z,54.38
2023-04-15T12:20:45.273Z,55.53
2023-04-15T12:23:31.639Z,55.97
2023-04-15T12:26:25.529Z,55.41
2023-04-15T12:29:13.643Z,53.98
2023-04-15T12:32:14.078Z,53.45
2023-04-15T12:35:00.644Z,52.92
2023-04-15T12:37:46.707Z,54.46
2023-04-15T12:40:33.139Z,53.42
2023-04-15T12:43:19.617Z,53.10
2023-04-15T12:46:06.990Z,51.47
2023-04-15T12:48:53.679Z,52.73
2023-04-15T12:51:39.907Z,51.35
2023-04-15T12:54:27.092Z,50.46
2023-04-15T12:57:13.790Z,50.09
2023-04-15T13:00:00.286Z,49.48
2023-04-15T13:02:47.006Z,49.25
2023-04-15T13:05:33.669Z,48.27
2023-04-15T13:08:20.070Z,49.10
2023-04-15T13:11:06.610Z,48.99
2023-04-15T13:13:53.019Z,46.44
2023-04-15T13:16:39.788Z,46.43
2023-04-15T13:19:26.590Z,46.57
2023-04-15T13:22:14.901Z,46.99
2023-04-15T13:25:01.374Z,45.83
2023-04-15T13:27:48.109Z,45.59
2023-04-15T13:30:34.345Z,45.87
2023-04-15T13:33:20.864Z,44.67
2023-04-15T13:36:08.300Z,46.04
2023-04-15T13:38:55.579Z,38.42
2023-04-15T13:41:41.806Z,38.05
2023-04-15T13:44:28.068Z,38.82
2023-04-15T13:47:16.050Z,39.94
2023-04-15T13:50:02.355Z,39.04
2023-04-15T13:52:48.682Z,39.56
2023-04-15T13:55:35.508Z,40.96
2023-04-15T13:58:21.932Z,41.62
2023-04-15T14:01:08.231Z,42.13
2023-04-15T14:03:54.678Z,42.19
2023-04-15T14:06:41.217Z,43.71
2023-04-15T14:09:28.119Z,43.73
2023-04-15T14:12:15.221Z,44.21
2023-04-15T14:15:02.233Z,45.54
2023-04-15T14:17:48.469Z,44.54
2023-04-15T14:20:35.157Z,45.04
2023-04-15T14:23:22.793Z,46.16
2023-04-15T14:26:09.195Z,46.02
2023-04-15T14:28:55.669Z,47.36
2023-04-15T14:31:42.479Z,47.24
2023-04-15T14:34:48.968Z,47.38
2023-04-15T14:37:35.924Z,48.01
2023-04-15T14:40:22.756Z,49.12
2023-04-15T14:43:09.249Z,49.91
2023-04-15T14:45:55.976Z,50.05
2023-04-15T14:48:42.824Z,51.05
2023-04-15T14:51:29.413Z,51.37
2023-04-15T14:54:16.094Z,50.81
2023-04-15T14:57:03.276Z,51.28
2023-04-15T14:59:49.649Z,51.81
2023-04-15T15:02:39.733Z,52.09
2023-04-15T15:05:29.908Z,52.34
2023-04-15T15:08:16.098Z,52.85
2023-04-15T15:11:02.420Z,52.46
2023-04-15T15:13:48.521Z,53.26
2023-04-15T15:16:34.956Z,51.14
2023-04-15T15:19:22.371Z,51.04
2023-04-15T15:22:08.775Z,50.63
2023-04-15T15:24:55.039Z,49.78
2023-04-15T15:27:41.312Z,50.24
2023-04-15T15:30:27.586Z,49.63
2023-04-15T15:33:13.693Z,50.55
2023-04-15T15:35:59.876Z,50.81
2023-04-15T15:38:46.446Z,50.42
2023-04-15T15:41:33.357Z,50.68
2023-04-15T15:44:19.660Z,50.16
2023-04-15T15:47:06.491Z,51.08
2023-04-15T15:49:57.120Z,51.95
2023-04-15T15:52:43.692Z,53.51
2023-04-15T15:55:29.915Z,55.26
2023-04-15T15:58:16.619Z,57.35
2023-04-15T16:01:03.385Z,60.31
2023-04-15T16:03:49.925Z,64.14
2023-04-15T16:06:36.383Z,67.33
2023-04-15T16:09:22.885Z,69.65
2023-04-15T16:12:09.395Z,72.26
2023-04-15T16:14:55.712Z,74.85
2023-04-15T16:17:42.148Z,77.03
2023-04-15T16:20:28.848Z,79.40
2023-04-15T16:23:16.582Z,82.41
2023-04-15T16:26:03.194Z,83.96
2023-04-15T16:28:49.448Z,88.33
2023-04-15T16:31:37.345Z,94.27
2023-04-15T16:34:24.015Z,99.00
2023-04-15T16:37:10.317Z,100.00
2023-04-15T16:39:56.464Z,100.00
2023-04-15T16:42:43.614Z,100.00
2023-04-15T16:45:29.908Z,100.00
2023-04-15T16:48:16.410Z,100.00
2023-04-15T16:51:02.853Z,100.00
2023-04-15T16:53:49.427Z,100.00
2023-04-15T16:56:35.774Z,100.00
2023-04-15T16:59:22.180Z,100.00
2023-04-15T17:02:13.874Z,100.00
2023-04-15T17:05:00.437Z,100.00
2023-04-15T17:07:46.732Z,100.00
2023-04-15T17:10:33.080Z,100.00
2023-04-15T17:13:19.270Z,100.00
2023-04-15T17:16:06.383Z,100.00
2023-04-15T17:18:53.161Z,100.00
2023-04-15T17:21:39.314Z,100.00
2023-04-15T17:24:26.065Z,100.00
2023-04-15T17:27:12.467Z,100.00
2023-04-15T17:29:58.834Z,100.00
2023-04-15T17:32:45.284Z,100.00
2023-04-15T17:35:32.005Z,100.00
2023-04-15T17:38:18.235Z,100.00
2023-04-15T17:41:07.311Z,100.00
2023-04-15T17:43:53.557Z,100.00
2023-04-15T17:46:39.805Z,100.00
2023-04-15T17:49:27.185Z,100.00
2023-04-15T17:52:14.465Z,100.00
2023-04-15T17:55:00.908Z,100.00
2023-04-15T17:57:57.311Z,100.00
2023-04-15T18:05:51.679Z,100.00
2023-04-15T18:08:38.442Z,100.00
2023-04-15T18:11:24.811Z,100.00
2023-04-15T18:14:11.316Z,100.00
2023-04-15T18:16:58.825Z,100.00
2023-04-15T18:19:45.858Z,100.00
2023-04-15T18:22:32.589Z,100.00
2023-04-15T18:25:19.483Z,100.00
2023-04-15T18:28:06.196Z,100.00
2023-04-15T18:30:52.542Z,100.00
2023-04-15T18:33:39.342Z,100.00
2023-04-15T18:36:26.608Z,100.00
2023-04-15T18:39:13.164Z,100.00
2023-04-15T18:41:59.622Z,100.00
2023-04-15T18:44:45.806Z,100.00
2023-04-15T18:47:32.250Z,100.00
2023-04-15T18:50:18.615Z,100.00
2023-04-15T18:53:04.740Z,100.00
2023-04-15T18:55:51.526Z,100.00
2023-04-15T18:59:18.795Z,100.00
2023-04-15T19:01:44.509Z,100.00
2023-04-15T19:04:30.671Z,100.00
2023-04-15T19:07:17.490Z,100.00
2023-04-15T19:10:05.751Z,100.00
2023-04-15T19:12:52.287Z,100.00
2023-04-15T19:15:38.581Z,100.00
2023-04-15T19:18:26.106Z,100.00
2023-04-15T19:21:13.240Z,100.00
2023-04-15T19:24:00.510Z,100.00
2023-04-15T19:26:51.125Z,100.00
2023-04-15T19:29:37.463Z,100.00
2023-04-15T19:32:24.367Z,100.00
2023-04-15T19:35:11.642Z,100.00
2023-04-15T19:37:58.641Z,100.00
2023-04-15T19:40:45.262Z,100.00
2023-04-15T19:43:32.744Z,100.00
2023-04-15T19:46:19.244Z,100.00
2023-04-15T19:49:06.107Z,100.00
2023-04-15T19:51:52.684Z,100.00
2023-04-15T19:54:39.170Z,100.00
2023-04-15T19:57:25.855Z,100.00
2023-04-15T20:00:12.589Z,100.00
2023-04-15T20:02:58.971Z,100.00
2023-04-15T20:05:45.890Z,100.00
2023-04-15T20:08:32.491Z,100.00
2023-04-15T20:11:19.077Z,100.00
2023-04-15T20:14:05.434Z,100.00
2023-04-15T20:16:51.684Z,100.00
2023-04-15T20:19:37.861Z,100.00
2023-04-15T20:22:24.038Z,100.00
2023-04-15T20:25:10.407Z,100.00
2023-04-15T20:28:00.306Z,100.00
2023-04-15T20:30:47.543Z,100.00
2023-04-15T20:33:33.913Z,100.00
2023-04-15T20:36:20.300Z,100.00
2023-04-15T20:39:07.020Z,100.00
2023-04-15T20:41:53.467Z,100.00
2023-04-15T20:44:39.880Z,100.00
2023-04-15T20:47:26.374Z,100.00
2023-04-15T20:50:12.731Z,100.00
2023-04-15T20:52:58.977Z,100.00
2023-04-15T20:55:45.536Z,100.00
2023-04-15T20:58:32.092Z,100.00
2023-04-15T21:01:18.388Z,100.00
2023-04-15T21:04:04.992Z,100.00
2023-04-15T21:06:52.337Z,100.00
2023-04-15T21:09:41.299Z,100.00
2023-04-15T21:12:27.913Z,100.00
2023-04-15T21:15:14.288Z,100.00
2023-04-15T21:18:00.992Z,100.00
2023-04-15T21:20:47.513Z,100.00
2023-04-15T21:23:35.918Z,100.00
2023-04-15T21:26:22.394Z,100.00
2023-04-15T21:29:11.486Z,100.00
2023-04-15T21:31:58.461Z,100.00
2023-04-15T21:34:44.960Z,100.00
2023-04-15T21:37:31.733Z,100.00
2023-04-15T21:40:19.375Z,100.00
2023-04-15T21:43:06.047Z,100.00
2023-04-15T21:46:22.313Z,100.00
2023-04-15T21:49:00.011Z,100.00
2023-04-15T21:51:47.465Z,100.00
2023-04-15T21:54:33.858Z,100.00
2023-04-15T21:57:20.096Z,100.00
2023-04-15T22:00:08.391Z,100.00
2023-04-15T22:02:54.772Z,100.00
2023-04-15T22:05:46.038Z,100.00
2023-04-15T22:08:38.677Z,100.00
2023-04-15T22:11:35.030Z,100.00
2023-04-15T22:14:21.376Z,100.00
2023-04-15T22:17:07.572Z,100.00
2023-04-15T22:19:53.952Z,100.00
2023-04-15T22:22:43.438Z,100.00
2023-04-15T22:25:31.588Z,100.00
2023-04-15T22:28:17.960Z,100.00
2023-04-15T22:31:04.325Z,100.00
2023-04-15T22:33:50.462Z,100.00
2023-04-15T22:36:36.947Z,100.00
2023-04-15T22:39:23.146Z,100.00
2023-04-15T22:42:09.672Z,100.00
2023-04-15T22:44:56.198Z,100.00
2023-04-15T22:47:42.317Z,100.00
2023-04-15T22:50:28.744Z,100.00
2023-04-15T22:53:16.630Z,100.00
2023-04-15T22:56:03.139Z,100.00
2023-04-15T22:58:49.749Z,100.00
2023-04-15T23:01:38.084Z,100.00
2023-04-15T23:04:25.638Z,100.00
2023-04-15T23:07:13.766Z,100.00
2023-04-15T23:10:01.135Z,100.00
2023-04-15T23:12:47.495Z,100.00
2023-04-15T23:15:33.691Z,100.00
2023-04-15T23:18:19.933Z,100.00
2023-04-15T23:21:06.191Z,100.00
2023-04-15T23:23:52.379Z,100.00
2023-04-15T23:26:38.872Z,100.00
2023-04-15T23:29:25.090Z,100.00
2023-04-15T23:32:11.460Z,100.00
2023-04-15T23:34:57.932Z,100.00
2023-04-15T23:37:44.181Z,100.00
2023-04-15T23:40:30.355Z,100.00
2023-04-15T23:43:16.967Z,100.00
2023-04-15T23:46:03.467Z,100.00
2023-04-15T23:48:50.041Z,100.00
2023-04-15T23:51:36.298Z,100.00
2023-04-15T23:54:23.363Z,100.00
2023-04-15T23:57:09.616Z,100.00
2023-04-15T23:59:56.113Z,100.00
